createdAt,value
2022-08-10T00:01:20.696Z,100.00
2022-08-10T00:03:49.424Z,100.00
2022-08-10T00:06:18.207Z,100.00
2022-08-10T00:08:48.142Z,100.00
2022-08-10T00:11:17.138Z,100.00
2022-08-10T00:13:45.923Z,100.00
2022-08-10T00:16:15.763Z,100.00
2022-08-10T00:18:45.200Z,100.00
2022-08-10T00:21:13.991Z,100.00
2022-08-10T00:23:43.843Z,100.00
2022-08-10T00:26:12.971Z,100.00
2022-08-10T00:28:41.789Z,100.00
2022-08-10T00:31:10.627Z,100.00
2022-08-10T00:33:39.342Z,100.00
2022-08-10T00:36:09.153Z,100.00
2022-08-10T00:38:38.000Z,100.00
2022-08-10T00:41:06.775Z,100.00
2022-08-10T00:43:35.485Z,100.00
2022-08-10T00:46:04.892Z,100.00
2022-08-10T00:48:34.635Z,100.00
2022-08-10T00:51:03.422Z,100.00
2022-08-10T00:53:32.228Z,100.00
2022-08-10T00:57:14.984Z,100.00
2022-08-10T00:58:31.391Z,100.00
2022-08-10T01:01:00.194Z,100.00
2022-08-10T01:04:39.959Z,100.00
2022-08-10T01:06:00.934Z,100.00
2022-08-10T01:08:34.296Z,100.00
2022-08-10T01:12:39.789Z,100.00
2022-08-10T01:13:42.454Z,100.00
2022-08-10T01:16:29.267Z,100.00
2022-08-10T01:18:59.561Z,100.00
2022-08-10T01:21:56.528Z,100.00
2022-08-10T01:24:35.176Z,100.00
2022-08-10T01:27:05.445Z,100.00
2022-08-10T01:29:45.091Z,100.00
2022-08-10T01:32:15.352Z,100.00
2022-08-10T01:34:45.675Z,100.00
2022-08-10T01:37:16.783Z,100.00
2022-08-10T01:39:47.230Z,100.00
2022-08-10T01:42:17.574Z,100.00
2022-08-10T01:44:50.626Z,100.00
2022-08-10T01:47:38.030Z,100.00
2022-08-10T01:50:08.364Z,100.00
2022-08-10T01:52:38.667Z,100.00
2022-08-10T01:55:08.230Z,100.00
2022-08-10T01:57:38.631Z,100.00
2022-08-10T02:00:09.165Z,100.00
2022-08-10T02:02:39.180Z,100.00
2022-08-10T02:05:08.477Z,100.00
2022-08-10T02:07:38.949Z,100.00
2022-08-10T02:10:09.354Z,100.00
2022-08-10T02:12:39.424Z,100.00
2022-08-10T02:15:10.936Z,100.00
2022-08-10T02:17:57.599Z,100.00
2022-08-10T02:20:13.023Z,100.00
2022-08-10T02:22:43.255Z,100.00
2022-08-10T02:25:39.810Z,100.00
2022-08-10T02:27:44.354Z,100.00
2022-08-10T02:30:13.552Z,100.00
2022-08-10T02:32:43.261Z,100.00
2022-08-10T02:35:22.265Z,100.00
2022-08-10T02:37:46.712Z,100.00
2022-08-10T02:45:02.253Z,100.00
2022-08-10T02:45:29.330Z,100.00
2022-08-10T02:45:30.959Z,100.00
2022-08-10T02:47:54.849Z,100.00
2022-08-10T02:50:28.173Z,100.00
2022-08-10T02:52:58.444Z,100.00
2022-08-10T02:55:34.643Z,100.00
2022-08-10T02:58:17.330Z,100.00
2022-08-10T03:00:36.774Z,100.00
2022-08-10T03:03:06.193Z,100.00
2022-08-10T03:05:35.017Z,100.00
2022-08-10T03:08:05.267Z,100.00
2022-08-10T03:10:38.055Z,100.00
2022-08-10T03:13:07.124Z,100.00
2022-08-10T03:15:38.342Z,100.00
2022-08-10T03:18:07.945Z,100.00
2022-08-10T03:20:40.097Z,100.00
2022-08-10T03:23:10.818Z,100.00
2022-08-10T03:25:40.039Z,100.00
2022-08-10T03:28:09.288Z,100.00
2022-08-10T03:30:38.464Z,100.00
2022-08-10T03:33:08.109Z,100.00
2022-08-10T03:35:36.927Z,100.00
2022-08-10T03:38:06.761Z,100.00
2022-08-10T03:40:45.990Z,100.00
2022-08-10T03:43:08.112Z,100.00
2022-08-10T03:45:55.469Z,100.00
2022-08-10T03:48:08.984Z,100.00
2022-08-10T03:50:45.842Z,100.00
2022-08-10T03:53:10.949Z,100.00
2022-08-10T03:56:29.867Z,100.00
2022-08-10T03:58:12.456Z,100.00
2022-08-10T04:00:41.927Z,100.00
2022-08-10T04:03:10.683Z,100.00
2022-08-10T04:05:39.596Z,100.00
2022-08-10T04:08:08.508Z,100.00
2022-08-10T04:10:37.311Z,100.00
2022-08-10T04:13:06.137Z,100.00
2022-08-10T04:15:35.893Z,100.00
2022-08-10T04:18:06.481Z,100.00
2022-08-10T04:20:39.631Z,100.00
2022-08-10T04:23:12.592Z,100.00
2022-08-10T04:25:41.819Z,100.00
2022-08-10T04:28:11.543Z,100.00
2022-08-10T04:30:42.131Z,100.00
2022-08-10T04:33:12.423Z,100.00
2022-08-10T04:35:41.728Z,100.00
2022-08-10T04:38:10.968Z,100.00
2022-08-10T04:40:40.092Z,100.00
2022-08-10T04:43:12.792Z,100.00
2022-08-10T04:45:49.650Z,100.00
2022-08-10T04:48:40.393Z,100.00
2022-08-10T04:50:41.817Z,100.00
2022-08-10T04:53:10.546Z,100.00
2022-08-10T04:55:39.372Z,100.00
2022-08-10T04:58:09.265Z,100.00
2022-08-10T05:00:38.124Z,100.00
2022-08-10T05:03:08.365Z,100.00
2022-08-10T05:05:37.112Z,100.00
2022-08-10T05:08:05.904Z,100.00
2022-08-10T05:10:34.790Z,100.00
2022-08-10T05:13:03.522Z,100.00
2022-08-10T05:15:32.267Z,100.00
2022-08-10T05:18:08.154Z,100.00
2022-08-10T05:20:32.632Z,100.00
2022-08-10T05:23:01.397Z,100.00
2022-08-10T05:25:32.976Z,100.00
2022-08-10T05:28:06.119Z,100.00
2022-08-10T05:30:32.301Z,100.00
2022-08-10T05:33:05.045Z,100.00
2022-08-10T05:35:55.203Z,100.00
2022-08-10T05:38:13.035Z,100.00
2022-08-10T05:40:32.823Z,100.00
2022-08-10T05:43:01.722Z,100.00
2022-08-10T05:45:32.588Z,100.00
2022-08-10T05:48:41.560Z,100.00
2022-08-10T05:50:31.843Z,100.00
2022-08-10T05:53:23.100Z,100.00
2022-08-10T05:55:31.582Z,100.00
2022-08-10T05:58:01.475Z,100.00
2022-08-10T06:00:37.398Z,100.00
2022-08-10T06:03:02.754Z,100.00
2022-08-10T06:05:35.724Z,100.00
2022-08-10T06:08:06.809Z,100.00
2022-08-10T06:10:50.847Z,100.00
2022-08-10T06:13:30.758Z,100.00
2022-08-10T06:15:59.106Z,100.00
2022-08-10T06:18:28.108Z,100.00
2022-08-10T06:20:58.289Z,100.00
2022-08-10T06:23:28.313Z,100.00
2022-08-10T06:26:12.027Z,100.00
2022-08-10T06:28:29.348Z,100.00
2022-08-10T06:30:58.855Z,100.00
2022-08-10T06:33:30.748Z,100.00
2022-08-10T06:36:00.164Z,100.00
2022-08-10T06:38:31.072Z,100.00
2022-08-10T06:41:01.361Z,100.00
2022-08-10T06:43:31.603Z,100.00
2022-08-10T06:46:07.513Z,100.00
2022-08-10T06:48:48.833Z,100.00
2022-08-10T06:51:24.771Z,100.00
2022-08-10T06:53:55.298Z,100.00
2022-08-10T06:56:37.778Z,100.00
2022-08-10T06:58:57.358Z,100.00
2022-08-10T07:01:27.661Z,100.00
2022-08-10T07:04:01.419Z,100.00
2022-08-10T07:06:30.464Z,100.00
2022-08-10T07:09:01.810Z,100.00
2022-08-10T07:11:32.040Z,100.00
2022-08-10T07:14:16.047Z,100.00
2022-08-10T07:16:35.048Z,100.00
2022-08-10T07:19:04.753Z,100.00
2022-08-10T07:21:34.073Z,100.00
2022-08-10T07:24:05.065Z,100.00
2022-08-10T07:26:35.901Z,100.00
2022-08-10T07:29:06.486Z,100.00
2022-08-10T07:31:56.995Z,100.00
2022-08-10T07:34:08.243Z,100.00
2022-08-10T07:36:37.413Z,100.00
2022-08-10T07:39:07.616Z,100.00
2022-08-10T07:41:37.907Z,100.00
2022-08-10T07:44:07.912Z,100.00
2022-08-10T07:46:38.146Z,100.00
2022-08-10T07:49:19.076Z,100.00
2022-08-10T07:51:39.525Z,100.00
2022-08-10T07:54:10.892Z,100.00
2022-08-10T07:56:48.855Z,100.00
2022-08-10T07:59:13.745Z,100.00
2022-08-10T08:01:44.114Z,100.00
2022-08-10T08:04:14.504Z,100.00
2022-08-10T08:06:44.833Z,99.27
2022-08-10T08:09:13.588Z,100.00
2022-08-10T08:11:44.111Z,99.92
2022-08-10T08:14:14.723Z,100.00
2022-08-10T08:16:45.003Z,96.99
2022-08-10T08:19:37.881Z,98.71
2022-08-10T08:24:06.201Z,100.00
2022-08-10T08:24:31.890Z,92.87
2022-08-10T08:26:51.472Z,87.20
2022-08-10T08:29:19.368Z,87.36
2022-08-10T08:32:02.173Z,85.65
2022-08-10T08:34:21.391Z,85.69
2022-08-10T08:36:53.949Z,88.89
2022-08-10T08:39:22.110Z,85.12
2022-08-10T08:42:04.719Z,85.07
2022-08-10T08:44:53.260Z,90.49
2022-08-10T08:48:04.087Z,84.31
2022-08-10T08:50:10.576Z,82.16
2022-08-10T08:52:49.631Z,77.10
2022-08-10T08:56:04.155Z,75.35
2022-08-10T08:57:57.518Z,76.34
2022-08-10T09:00:27.775Z,87.08
2022-08-10T09:03:10.052Z,81.60
2022-08-10T09:05:58.537Z,74.46
2022-08-10T09:08:12.181Z,70.47
2022-08-10T09:10:42.433Z,71.31
2022-08-10T09:13:13.295Z,71.80
2022-08-10T09:15:43.565Z,67.49
2022-08-10T09:18:14.875Z,67.12
2022-08-10T09:20:46.102Z,73.98
2022-08-10T09:24:01.443Z,67.95
2022-08-10T09:26:03.097Z,70.06
2022-08-10T09:28:35.074Z,67.64
2022-08-10T09:31:22.349Z,68.56
2022-08-10T09:36:21.775Z,65.97
2022-08-10T09:36:37.697Z,68.04
2022-08-10T09:39:08.447Z,68.65
2022-08-10T09:41:38.813Z,65.79
2022-08-10T09:44:18.420Z,63.44
2022-08-10T09:46:54.528Z,63.00
2022-08-10T09:49:52.986Z,62.48
2022-08-10T09:51:56.921Z,67.51
2022-08-10T09:54:30.294Z,63.85
2022-08-10T10:00:03.252Z,66.12
2022-08-10T10:02:40.714Z,60.70
2022-08-10T10:05:26.294Z,58.80
2022-08-10T10:07:56.619Z,57.03
2022-08-10T10:10:26.879Z,58.26
2022-08-10T10:12:57.187Z,58.56
2022-08-10T10:15:27.742Z,57.53
2022-08-10T10:18:01.470Z,54.21
2022-08-10T10:20:37.913Z,54.95
2022-08-10T10:23:26.622Z,54.87
2022-08-10T10:26:05.011Z,53.78
2022-08-10T10:31:18.889Z,59.54
2022-08-10T10:33:51.350Z,54.51
2022-08-10T10:36:20.232Z,53.89
2022-08-10T10:38:50.042Z,57.87
2022-08-10T10:41:56.179Z,55.65
2022-08-10T10:44:22.739Z,56.22
2022-08-10T10:47:09.906Z,51.73
2022-08-10T10:49:41.227Z,55.53
2022-08-10T10:52:11.480Z,57.94
2022-08-10T10:54:44.413Z,58.40
2022-08-10T10:57:14.737Z,55.93
2022-08-10T10:59:56.070Z,55.24
2022-08-10T11:02:16.917Z,56.21
2022-08-10T11:04:59.308Z,54.83
2022-08-10T11:07:35.380Z,52.30
2022-08-10T11:10:31.655Z,50.21
2022-08-10T11:12:46.781Z,51.68
2022-08-10T11:15:15.922Z,50.74
2022-08-10T11:17:49.102Z,51.66
2022-08-10T11:20:25.439Z,55.98
2022-08-10T11:22:55.932Z,51.32
2022-08-10T11:25:35.004Z,50.65
2022-08-10T11:28:05.808Z,51.25
2022-08-10T11:30:36.063Z,52.13
2022-08-10T11:33:09.904Z,53.15
2022-08-10T11:35:43.096Z,52.80
2022-08-10T11:38:30.961Z,51.49
2022-08-10T11:41:05.573Z,53.17
2022-08-10T11:43:36.153Z,54.78
2022-08-10T11:46:28.685Z,56.87
2022-08-10T11:49:03.531Z,50.46
2022-08-10T11:51:31.501Z,50.34
2022-08-10T11:54:11.180Z,49.23
2022-08-10T11:56:41.433Z,49.01
2022-08-10T11:59:28.402Z,53.32
2022-08-10T12:01:57.890Z,49.08
2022-08-10T12:04:28.129Z,48.94
2022-08-10T12:06:57.699Z,48.34
2022-08-10T12:10:05.795Z,45.04
2022-08-10T12:12:02.104Z,46.82
2022-08-10T12:14:35.120Z,46.56
2022-08-10T12:17:05.406Z,48.88
2022-08-10T12:19:59.613Z,51.35
2022-08-10T12:22:13.331Z,51.58
2022-08-10T12:24:49.842Z,51.12
2022-08-10T12:27:23.155Z,49.46
2022-08-10T12:29:53.419Z,51.77
2022-08-10T12:32:38.641Z,52.90
2022-08-10T12:35:19.461Z,51.36
2022-08-10T12:37:53.457Z,49.73
2022-08-10T12:40:42.058Z,48.74
2022-08-10T12:43:13.229Z,48.87
2022-08-10T12:45:34.133Z,47.90
2022-08-10T12:48:14.427Z,48.53
2022-08-10T12:50:44.764Z,51.69
2022-08-10T12:53:27.097Z,51.82
2022-08-10T12:55:56.619Z,52.61
2022-08-10T12:58:57.239Z,53.13
2022-08-10T13:04:23.748Z,47.50
2022-08-10T13:06:02.312Z,50.02
2022-08-10T13:08:50.964Z,53.47
2022-08-10T13:12:35.042Z,52.82
2022-08-10T13:13:53.072Z,52.78
2022-08-10T13:16:24.073Z,51.76
2022-08-10T13:18:55.969Z,48.26
2022-08-10T13:21:26.282Z,48.51
2022-08-10T13:24:03.585Z,48.74
2022-08-10T13:26:28.416Z,46.14
2022-08-10T13:29:01.051Z,46.85
2022-08-10T13:32:04.286Z,51.52
2022-08-10T13:34:43.807Z,49.73
2022-08-10T13:36:39.296Z,50.19
2022-08-10T13:39:08.307Z,50.33
2022-08-10T13:41:38.670Z,48.02
2022-08-10T13:44:09.096Z,49.54
2022-08-10T13:46:40.568Z,48.33
2022-08-10T13:49:10.358Z,46.42
2022-08-10T13:51:53.999Z,48.01
2022-08-10T13:54:11.439Z,48.33
2022-08-10T13:56:42.676Z,47.45
2022-08-10T13:59:12.929Z,47.74
2022-08-10T14:01:44.832Z,46.37
2022-08-10T14:04:14.848Z,47.73
2022-08-10T14:06:45.083Z,46.78
2022-08-10T14:09:15.176Z,49.19
2022-08-10T14:11:44.185Z,50.87
2022-08-10T14:14:20.805Z,51.58
2022-08-10T14:16:50.502Z,51.56
2022-08-10T14:19:23.884Z,54.97
2022-08-10T14:21:53.785Z,54.16
2022-08-10T14:24:30.969Z,53.86
2022-08-10T14:27:12.371Z,52.86
2022-08-10T14:29:44.939Z,55.98
2022-08-10T14:32:14.854Z,50.59
2022-08-10T14:34:59.080Z,48.23
2022-08-10T14:37:17.314Z,51.34
2022-08-10T14:39:51.426Z,48.86
2022-08-10T14:42:27.525Z,47.07
2022-08-10T14:44:58.207Z,50.96
2022-08-10T14:47:53.871Z,47.63
2022-08-10T14:50:01.643Z,47.76
2022-08-10T14:52:36.437Z,48.10
2022-08-10T14:55:19.500Z,49.74
2022-08-10T14:58:19.535Z,51.86
2022-08-10T15:00:36.519Z,52.57
2022-08-10T15:02:58.757Z,52.42
2022-08-10T15:05:41.663Z,55.30
2022-08-10T15:07:59.794Z,53.00
2022-08-10T15:10:28.971Z,54.61
2022-08-10T15:12:59.192Z,56.54
2022-08-10T15:15:30.589Z,54.22
2022-08-10T15:18:02.787Z,56.13
2022-08-10T15:20:33.336Z,57.51
2022-08-10T15:23:03.955Z,50.22
2022-08-10T15:25:36.604Z,48.81
2022-08-10T15:28:08.229Z,48.31
2022-08-10T15:30:45.161Z,49.94
2022-08-10T15:34:02.178Z,47.38
2022-08-10T15:36:26.487Z,48.69
2022-08-10T15:38:59.579Z,49.84
2022-08-10T15:41:59.409Z,48.73
2022-08-10T15:44:09.287Z,50.74
2022-08-10T15:46:39.564Z,51.80
2022-08-10T15:49:14.807Z,52.18
2022-08-10T15:51:54.947Z,50.48
2022-08-10T15:54:33.111Z,51.77
2022-08-10T15:56:57.148Z,50.97
2022-08-10T15:59:36.270Z,52.74
2022-08-10T16:02:16.243Z,51.11
2022-08-10T16:04:38.366Z,50.82
2022-08-10T16:07:08.612Z,51.40
2022-08-10T16:10:26.704Z,51.44
2022-08-10T16:12:29.224Z,53.73
2022-08-10T16:14:52.595Z,52.66
2022-08-10T16:17:23.120Z,55.34
2022-08-10T16:19:53.546Z,52.35
2022-08-10T16:22:34.197Z,54.97
2022-08-10T16:24:55.677Z,55.11
2022-08-10T16:27:27.376Z,56.30
2022-08-10T16:29:58.224Z,57.38
2022-08-10T16:32:28.244Z,55.94
2022-08-10T16:34:58.834Z,56.31
2022-08-10T16:37:57.754Z,56.62
2022-08-10T16:40:03.760Z,53.78
2022-08-10T16:42:34.410Z,52.95
2022-08-10T16:45:07.687Z,54.49
2022-08-10T16:47:53.577Z,54.25
2022-08-10T16:50:23.833Z,54.61
2022-08-10T16:52:53.924Z,55.05
2022-08-10T16:55:48.079Z,53.49
2022-08-10T16:57:56.116Z,54.58
2022-08-10T17:00:25.735Z,55.12
2022-08-10T17:02:57.216Z,56.47
2022-08-10T17:06:01.589Z,53.48
2022-08-10T17:07:59.559Z,54.03
2022-08-10T17:10:29.827Z,55.28
2022-08-10T17:12:59.644Z,55.29
2022-08-10T17:15:28.705Z,54.38
2022-08-10T17:17:59.162Z,56.80
2022-08-10T17:20:31.333Z,55.25
2022-08-10T17:23:01.374Z,57.09
2022-08-10T17:25:48.322Z,58.70
2022-08-10T17:28:35.001Z,58.61
2022-08-10T17:30:57.421Z,61.40
2022-08-10T17:33:07.101Z,59.92
2022-08-10T17:35:39.917Z,61.42
2022-08-10T17:38:16.032Z,64.52
2022-08-10T17:41:07.652Z,67.45
2022-08-10T17:43:58.223Z,69.32
2022-08-10T17:46:09.267Z,68.19
2022-08-10T17:48:38.920Z,70.97
2022-08-10T17:51:15.492Z,73.60
2022-08-10T17:53:46.796Z,76.57
2022-08-10T17:56:17.171Z,79.11
2022-08-10T17:58:53.853Z,79.97
2022-08-10T18:01:42.130Z,82.60
2022-08-10T18:03:56.018Z,83.65
2022-08-10T18:06:25.456Z,82.46
2022-08-10T18:08:55.714Z,81.69
2022-08-10T18:11:26.217Z,81.34
2022-08-10T18:13:57.379Z,84.20
2022-08-10T18:16:27.700Z,87.21
2022-08-10T18:19:00.048Z,90.57
2022-08-10T18:21:30.816Z,92.14
2022-08-10T18:24:07.499Z,91.56
2022-08-10T18:26:37.796Z,91.50
2022-08-10T18:29:18.924Z,91.17
2022-08-10T18:31:48.263Z,89.90
2022-08-10T18:34:18.491Z,93.84
2022-08-10T18:36:49.428Z,96.26
2022-08-10T18:39:19.800Z,97.93
2022-08-10T18:42:00.755Z,98.98
2022-08-10T18:44:20.530Z,100.00
2022-08-10T18:46:53.480Z,100.00
2022-08-10T18:49:29.859Z,100.00
2022-08-10T18:52:00.113Z,100.00
2022-08-10T18:54:39.134Z,100.00
2022-08-10T18:57:01.668Z,100.00
2022-08-10T18:59:35.752Z,100.00
2022-08-10T19:02:09.724Z,100.00
2022-08-10T19:04:46.263Z,100.00
2022-08-10T19:07:19.448Z,100.00
2022-08-10T19:10:06.322Z,100.00
2022-08-10T19:12:54.916Z,100.00
2022-08-10T19:15:28.370Z,100.00
2022-08-10T19:18:08.043Z,100.00
2022-08-10T19:20:44.388Z,100.00
2022-08-10T19:23:29.630Z,100.00
2022-08-10T19:26:36.496Z,100.00
2022-08-10T19:28:40.813Z,100.00
2022-08-10T19:31:20.091Z,100.00
2022-08-10T19:34:11.868Z,100.00
2022-08-10T19:36:45.517Z,100.00
2022-08-10T19:39:21.763Z,100.00
2022-08-10T19:41:57.627Z,100.00
2022-08-10T19:44:46.372Z,100.00
2022-08-10T19:47:33.306Z,100.00
2022-08-10T19:50:03.623Z,100.00
2022-08-10T19:52:34.020Z,100.00
2022-08-10T19:55:15.047Z,100.00
2022-08-10T19:57:44.686Z,100.00
2022-08-10T20:00:19.177Z,100.00
2022-08-10T20:03:11.966Z,100.00
2022-08-10T20:05:36.383Z,100.00
2022-08-10T20:08:14.498Z,100.00
2022-08-10T20:10:56.589Z,100.00
2022-08-10T20:13:33.034Z,100.00
2022-08-10T20:16:06.952Z,100.00
2022-08-10T20:18:47.204Z,100.00
2022-08-10T20:21:17.440Z,100.00
2022-08-10T20:24:01.338Z,100.00
2022-08-10T20:26:32.273Z,100.00
2022-08-10T20:29:05.655Z,100.00
2022-08-10T20:31:46.225Z,100.00
2022-08-10T20:34:19.389Z,100.00
2022-08-10T20:36:52.718Z,100.00
2022-08-10T20:39:32.228Z,100.00
2022-08-10T20:42:02.443Z,100.00
2022-08-10T20:44:36.078Z,100.00
2022-08-10T20:47:18.669Z,100.00
2022-08-10T20:49:54.907Z,100.00
2022-08-10T20:52:25.158Z,100.00
2022-08-10T20:54:55.496Z,100.00
2022-08-10T20:57:54.684Z,100.00
2022-08-10T21:00:05.381Z,100.00
2022-08-10T21:02:52.434Z,100.00
2022-08-10T21:05:25.605Z,100.00
2022-08-10T21:08:01.751Z,100.00
2022-08-10T21:10:27.706Z,100.00
2022-08-10T21:12:57.943Z,100.00
2022-08-10T21:15:41.888Z,100.00
2022-08-10T21:18:22.888Z,100.00
2022-08-10T21:20:59.494Z,100.00
2022-08-10T21:23:30.697Z,100.00
2022-08-10T21:26:16.191Z,100.00
2022-08-10T21:28:55.111Z,100.00
2022-08-10T21:31:41.323Z,100.00
2022-08-10T21:34:11.057Z,100.00
2022-08-10T21:36:43.671Z,100.00
2022-08-10T21:39:16.483Z,100.00
2022-08-10T21:42:18.031Z,100.00
2022-08-10T21:45:12.152Z,100.00
2022-08-10T21:48:16.618Z,100.00
2022-08-10T21:50:54.695Z,100.00
2022-08-10T21:53:48.890Z,100.00
2022-08-10T21:56:40.302Z,100.00
2022-08-10T21:59:47.963Z,100.00
2022-08-10T22:02:36.474Z,100.00
2022-08-10T22:05:24.370Z,100.00
2022-08-10T22:08:15.048Z,100.00
2022-08-10T22:11:03.343Z,100.00
2022-08-10T22:13:53.289Z,100.00
2022-08-10T22:16:41.099Z,100.00
2022-08-10T22:19:39.050Z,100.00
2022-08-10T22:22:29.105Z,100.00
2022-08-10T22:25:34.133Z,100.00
2022-08-10T22:28:21.019Z,100.00
2022-08-10T22:31:31.137Z,100.00
2022-08-10T22:34:02.260Z,100.00
2022-08-10T22:36:53.325Z,100.00
2022-08-10T22:40:10.874Z,100.00
2022-08-10T22:42:59.547Z,100.00
2022-08-10T22:45:37.360Z,100.00
2022-08-10T22:48:25.267Z,100.00
2022-08-10T22:50:57.288Z,100.00
2022-08-10T22:53:32.086Z,100.00
2022-08-10T22:56:18.859Z,100.00
2022-08-10T22:58:47.642Z,100.00
2022-08-10T23:01:38.739Z,100.00
2022-08-10T23:04:13.514Z,100.00
2022-08-10T23:06:44.803Z,100.00
2022-08-10T23:09:14.985Z,100.00
2022-08-10T23:11:45.045Z,100.00
2022-08-10T23:14:15.374Z,100.00
2022-08-10T23:17:03.909Z,100.00
2022-08-10T23:19:43.461Z,100.00
2022-08-10T23:22:13.719Z,100.00
2022-08-10T23:24:50.039Z,100.00
2022-08-10T23:27:38.980Z,100.00
2022-08-10T23:30:10.133Z,100.00
2022-08-10T23:32:30.553Z,100.00
2022-08-10T23:36:13.827Z,100.00
2022-08-10T23:37:32.381Z,100.00
2022-08-10T23:40:02.748Z,100.00
2022-08-10T23:42:34.675Z,100.00
2022-08-10T23:45:04.291Z,100.00
2022-08-10T23:47:33.145Z,100.00
2022-08-10T23:50:03.467Z,100.00
2022-08-10T23:52:33.885Z,100.00
2022-08-10T23:55:08.312Z,100.00
2022-08-10T23:57:39.532Z,100.00
